createdAt,value
2017-04-28T00:00:34.957Z,0
2017-04-28T00:01:45.218Z,0
2017-04-28T00:02:55.486Z,0
2017-04-28T00:04:05.759Z,0
2017-04-28T00:05:16.024Z,0
2017-04-28T00:06:26.306Z,0
2017-04-28T00:07:36.560Z,0
2017-04-28T00:08:46.820Z,0
2017-04-28T00:09:56.767Z,0
2017-04-28T00:11:07.058Z,0
2017-04-28T00:12:17.318Z,0
2017-04-28T00:13:27.576Z,0
2017-04-28T00:14:37.523Z,0
2017-04-28T00:15:47.776Z,0
2017-04-28T00:16:58.029Z,0
2017-04-28T00:18:08.293Z,0
2017-04-28T00:19:18.555Z,0
2017-04-28T00:20:28.806Z,0
2017-04-28T00:21:39.059Z,0
2017-04-28T00:22:49.313Z,0
2017-04-28T00:23:59.573Z,0
2017-04-28T00:25:09.826Z,0
2017-04-28T00:26:20.085Z,0
2017-04-28T00:27:30.344Z,0
2017-04-28T00:28:40.598Z,0
2017-04-28T00:29:50.861Z,0
2017-04-28T00:31:01.128Z,0
2017-04-28T00:32:11.077Z,0
2017-04-28T00:33:23.344Z,0
2017-04-28T00:34:33.609Z,0
2017-04-28T00:35:43.860Z,0
2017-04-28T00:36:54.115Z,0
2017-04-28T00:38:04.374Z,0
2017-04-28T00:39:14.325Z,0
2017-04-28T00:40:24.579Z,0
2017-04-28T00:41:34.838Z,0
2017-04-28T00:42:45.096Z,0
2017-04-28T00:43:55.356Z,0
2017-04-28T00:45:05.616Z,0
2017-04-28T00:46:15.870Z,0
2017-04-28T00:47:26.128Z,0
2017-04-28T00:48:36.386Z,0
2017-04-28T00:49:46.643Z,0
2017-04-28T00:50:56.895Z,0
2017-04-28T00:52:07.154Z,0
2017-04-28T00:53:17.419Z,0
2017-04-28T00:54:27.679Z,0
2017-04-28T00:55:37.940Z,0
2017-04-28T00:56:48.225Z,0
2017-04-28T00:57:58.482Z,0
2017-04-28T00:59:08.440Z,0
2017-04-28T01:00:18.701Z,0
2017-04-28T01:01:28.963Z,0
2017-04-28T01:02:39.224Z,0
2017-04-28T01:03:49.482Z,0
2017-04-28T01:04:59.746Z,0
2017-04-28T01:06:09.997Z,0
2017-04-28T01:07:20.253Z,0
2017-04-28T01:08:30.198Z,0
2017-04-28T01:09:40.457Z,0
2017-04-28T01:10:50.719Z,0
2017-04-28T01:12:00.983Z,0
2017-04-28T01:13:10.926Z,0
2017-04-28T01:14:21.179Z,0
2017-04-28T01:15:31.432Z,0
2017-04-28T01:16:41.374Z,0
2017-04-28T01:17:51.632Z,0
2017-04-28T01:19:01.896Z,0
2017-04-28T01:20:11.525Z,0
2017-04-28T01:21:21.779Z,0
2017-04-28T01:22:32.069Z,0
2017-04-28T01:23:42.326Z,0
2017-04-28T01:24:52.579Z,0
2017-04-28T01:26:02.523Z,0
2017-04-28T01:27:12.783Z,0
2017-04-28T01:28:22.730Z,0
2017-04-28T01:29:32.984Z,0
2017-04-28T01:30:43.274Z,0
2017-04-28T01:31:55.784Z,0
2017-04-28T01:33:05.735Z,0
2017-04-28T01:34:15.047Z,0
2017-04-28T01:35:25.294Z,0
2017-04-28T01:36:35.544Z,0
2017-04-28T01:37:45.805Z,0
2017-04-28T01:38:55.755Z,0
2017-04-28T01:40:05.697Z,0
2017-04-28T01:41:15.947Z,0
2017-04-28T01:42:26.202Z,0
2017-04-28T01:43:36.470Z,0
2017-04-28T01:44:46.448Z,0
2017-04-28T01:45:56.702Z,0
2017-04-28T01:47:06.970Z,0
2017-04-28T01:48:16.954Z,0
2017-04-28T01:49:27.240Z,0
2017-04-28T01:50:37.496Z,0
2017-04-28T01:51:47.743Z,0
2017-04-28T01:52:58.002Z,0
2017-04-28T01:54:08.253Z,0
2017-04-28T01:55:18.510Z,0
2017-04-28T01:56:28.801Z,0
2017-04-28T01:57:39.063Z,0
2017-04-28T01:58:49.010Z,0
2017-04-28T01:59:59.269Z,0
2017-04-28T02:01:09.226Z,0
2017-04-28T02:02:19.167Z,0
2017-04-28T02:03:29.434Z,0
2017-04-28T02:04:39.693Z,0
2017-04-28T02:05:49.951Z,0
2017-04-28T02:07:00.201Z,0
2017-04-28T02:08:09.836Z,0
2017-04-28T02:09:20.091Z,0
2017-04-28T02:10:30.035Z,0
2017-04-28T02:11:40.285Z,0
2017-04-28T02:12:50.539Z,0
2017-04-28T02:14:00.803Z,0
2017-04-28T02:15:11.052Z,0
2017-04-28T02:16:21.303Z,0
2017-04-28T02:17:31.564Z,0
2017-04-28T02:18:41.818Z,0
2017-04-28T02:19:52.082Z,0
2017-04-28T02:21:02.347Z,0
2017-04-28T02:22:12.598Z,0
2017-04-28T02:23:22.850Z,0
2017-04-28T02:24:33.153Z,0
2017-04-28T02:25:43.409Z,0
2017-04-28T02:26:53.667Z,0
2017-04-28T02:28:03.924Z,0
2017-04-28T02:29:13.874Z,0
2017-04-28T02:30:24.131Z,0
2017-04-28T02:31:34.392Z,0
2017-04-28T02:32:44.655Z,0
2017-04-28T02:33:54.956Z,0
2017-04-28T02:35:05.216Z,0
2017-04-28T02:36:15.157Z,0
2017-04-28T02:37:25.415Z,0
2017-04-28T02:38:35.674Z,0
2017-04-28T02:39:45.934Z,0
2017-04-28T02:40:55.889Z,0
2017-04-28T02:42:05.826Z,0
2017-04-28T02:43:15.460Z,0
2017-04-28T02:44:25.402Z,0
2017-04-28T02:45:35.657Z,0
2017-04-28T02:46:45.603Z,0
2017-04-28T02:47:55.862Z,0
2017-04-28T02:49:06.123Z,0
2017-04-28T02:50:16.381Z,0
2017-04-28T02:51:26.638Z,0
2017-04-28T02:52:36.891Z,0
2017-04-28T02:53:46.830Z,0
2017-04-28T02:54:57.086Z,0
2017-04-28T02:56:07.026Z,0
2017-04-28T02:57:17.294Z,0
2017-04-28T02:58:27.574Z,0
2017-04-28T02:59:37.845Z,0
2017-04-28T03:00:47.789Z,0
2017-04-28T03:01:58.052Z,0
2017-04-28T03:03:08.306Z,0
2017-04-28T03:04:18.248Z,0
2017-04-28T03:05:28.504Z,0
2017-04-28T03:06:38.761Z,0
2017-04-28T03:07:49.024Z,0
2017-04-28T03:08:59.289Z,0
2017-04-28T03:10:09.233Z,5
2017-04-28T03:11:19.492Z,5
2017-04-28T03:12:29.746Z,5
2017-04-28T03:13:39.997Z,5
2017-04-28T03:14:50.256Z,5
2017-04-28T03:16:00.514Z,5
2017-04-28T03:17:10.141Z,5
2017-04-28T03:18:20.395Z,5
2017-04-28T03:19:30.667Z,10
2017-04-28T03:20:40.917Z,10
2017-04-28T03:21:51.173Z,10
2017-04-28T03:23:01.427Z,10
2017-04-28T03:24:10.749Z,10
2017-04-28T03:25:20.692Z,15
2017-04-28T03:26:30.946Z,15
2017-04-28T03:27:41.215Z,15
2017-04-28T03:28:51.157Z,15
2017-04-28T03:30:01.424Z,15
2017-04-28T03:31:11.675Z,15
2017-04-28T03:32:21.938Z,20
2017-04-28T03:33:32.209Z,20
2017-04-28T03:34:42.472Z,20
2017-04-28T03:35:52.738Z,20
2017-04-28T03:37:03.007Z,25
2017-04-28T03:38:12.954Z,25
2017-04-28T03:39:22.900Z,25
2017-04-28T03:40:32.838Z,30
2017-04-28T03:41:43.094Z,30
2017-04-28T03:42:53.036Z,35
2017-04-28T03:44:03.294Z,35
2017-04-28T03:45:13.551Z,35
2017-04-28T03:46:23.801Z,40
2017-04-28T03:47:33.750Z,40
2017-04-28T03:48:44.006Z,45
2017-04-28T03:49:54.269Z,45
2017-04-28T03:51:04.522Z,45
2017-04-28T03:52:14.159Z,45
2017-04-28T03:53:24.421Z,45
2017-04-28T03:54:34.369Z,45
2017-04-28T03:55:44.634Z,45
2017-04-28T03:56:54.894Z,45
2017-04-28T03:58:04.850Z,45
2017-04-28T03:59:14.488Z,45
2017-04-28T04:00:24.742Z,45
2017-04-28T04:01:35.004Z,50
2017-04-28T04:02:45.257Z,50
2017-04-28T04:03:55.516Z,50
2017-04-28T04:05:05.779Z,55
2017-04-28T04:06:15.715Z,55
2017-04-28T04:07:25.972Z,55
2017-04-28T04:08:36.233Z,55
2017-04-28T04:09:46.486Z,60
2017-04-28T04:10:56.744Z,60
2017-04-28T04:12:06.997Z,60
2017-04-28T04:13:16.631Z,65
2017-04-28T04:14:26.888Z,70
2017-04-28T04:15:37.157Z,70
2017-04-28T04:16:47.409Z,75
2017-04-28T04:17:57.666Z,75
2017-04-28T04:19:07.921Z,80
2017-04-28T04:20:17.549Z,90
2017-04-28T04:21:27.811Z,95
2017-04-28T04:22:38.078Z,90
2017-04-28T04:23:48.332Z,95
2017-04-28T04:24:58.590Z,100
2017-04-28T04:26:08.535Z,105
2017-04-28T04:27:18.486Z,105
2017-04-28T04:28:28.752Z,115
2017-04-28T04:29:39.008Z,120
2017-04-28T04:30:49.265Z,120
2017-04-28T04:31:59.523Z,120
2017-04-28T04:33:09.467Z,120
2017-04-28T04:34:19.412Z,120
2017-04-28T04:35:29.665Z,120
2017-04-28T04:36:39.918Z,125
2017-04-28T04:37:50.180Z,130
2017-04-28T04:39:00.433Z,140
2017-04-28T04:40:10.688Z,150
2017-04-28T04:41:20.947Z,155
2017-04-28T04:42:31.216Z,160
2017-04-28T04:43:41.484Z,165
2017-04-28T04:44:51.745Z,165
2017-04-28T04:46:02.001Z,165
2017-04-28T04:47:12.254Z,160
2017-04-28T04:48:22.209Z,155
2017-04-28T04:49:32.477Z,150
2017-04-28T04:50:42.418Z,135
2017-04-28T04:51:52.361Z,140
2017-04-28T04:53:02.626Z,130
2017-04-28T04:54:12.888Z,130
2017-04-28T04:55:22.828Z,130
2017-04-28T04:56:32.773Z,130
2017-04-28T04:57:43.039Z,125
2017-04-28T04:58:53.297Z,130
2017-04-28T05:00:03.245Z,135
2017-04-28T05:01:13.227Z,145
2017-04-28T05:02:23.497Z,150
2017-04-28T05:03:33.762Z,150
2017-04-28T05:04:44.020Z,150
2017-04-28T05:05:54.278Z,145
2017-04-28T05:07:04.222Z,145
2017-04-28T05:08:14.173Z,140
2017-04-28T05:09:24.435Z,140
2017-04-28T05:10:34.689Z,150
2017-04-28T05:11:44.941Z,150
2017-04-28T05:12:55.194Z,145
2017-04-28T05:14:05.450Z,140
2017-04-28T05:15:15.699Z,135
2017-04-28T05:16:25.954Z,130
2017-04-28T05:17:36.213Z,115
2017-04-28T05:18:46.474Z,100
2017-04-28T05:19:56.752Z,90
2017-04-28T05:21:07.014Z,90
2017-04-28T05:22:17.272Z,80
2017-04-28T05:23:27.538Z,70
2017-04-28T05:24:37.799Z,75
2017-04-28T05:25:48.085Z,75
2017-04-28T05:26:58.343Z,70
2017-04-28T05:28:08.281Z,75
2017-04-28T05:29:18.546Z,100
2017-04-28T05:30:28.805Z,100
2017-04-28T05:31:38.760Z,100
2017-04-28T05:32:49.024Z,95
2017-04-28T05:33:59.280Z,85
2017-04-28T05:35:09.531Z,85
2017-04-28T05:36:19.789Z,80
2017-04-28T05:37:30.048Z,80
2017-04-28T05:38:40.301Z,80
2017-04-28T05:39:50.561Z,80
2017-04-28T05:41:00.838Z,85
2017-04-28T05:42:10.791Z,80
2017-04-28T05:43:21.048Z,75
2017-04-28T05:44:31.319Z,70
2017-04-28T05:45:41.572Z,70
2017-04-28T05:46:51.837Z,70
2017-04-28T05:48:02.103Z,70
2017-04-28T05:49:12.049Z,65
2017-04-28T05:50:22.005Z,70
2017-04-28T05:51:31.944Z,65
2017-04-28T05:52:42.201Z,60
2017-04-28T05:53:52.462Z,60
2017-04-28T05:55:02.724Z,60
2017-04-28T05:56:12.978Z,60
2017-04-28T05:57:22.917Z,65
2017-04-28T05:58:33.189Z,65
2017-04-28T05:59:43.139Z,65
2017-04-28T06:00:53.088Z,70
2017-04-28T06:02:03.351Z,70
2017-04-28T06:03:13.295Z,70
2017-04-28T06:04:23.590Z,70
2017-04-28T06:05:33.845Z,70
2017-04-28T06:06:43.781Z,70
2017-04-28T06:07:53.733Z,65
2017-04-28T06:09:04.016Z,70
2017-04-28T06:10:14.274Z,75
2017-04-28T06:11:24.528Z,75
2017-04-28T06:12:34.470Z,80
2017-04-28T06:13:44.423Z,85
2017-04-28T06:14:54.699Z,90
2017-04-28T06:16:04.954Z,90
2017-04-28T06:17:14.595Z,90
2017-04-28T06:18:24.919Z,90
2017-04-28T06:19:34.870Z,90
2017-04-28T06:20:44.805Z,90
2017-04-28T06:21:55.057Z,90
2017-04-28T06:23:05.315Z,85
2017-04-28T06:24:14.951Z,90
2017-04-28T06:25:25.205Z,90
2017-04-28T06:26:35.491Z,95
2017-04-28T06:27:45.780Z,100
2017-04-28T06:28:56.070Z,100
2017-04-28T06:30:06.344Z,100
2017-04-28T06:31:16.605Z,105
2017-04-28T06:32:26.875Z,105
2017-04-28T06:33:37.132Z,105
2017-04-28T06:34:47.392Z,105
2017-04-28T06:35:57.638Z,105
2017-04-28T06:37:07.893Z,105
2017-04-28T06:38:18.157Z,105
2017-04-28T06:39:28.107Z,100
2017-04-28T06:40:38.367Z,100
2017-04-28T06:41:48.315Z,105
2017-04-28T06:42:58.573Z,110
2017-04-28T06:44:08.836Z,115
2017-04-28T06:45:19.094Z,115
2017-04-28T06:46:29.048Z,120
2017-04-28T06:47:39.313Z,130
2017-04-28T06:48:49.609Z,140
2017-04-28T06:49:59.871Z,145
2017-04-28T06:51:09.814Z,145
2017-04-28T06:52:20.071Z,150
2017-04-28T06:53:30.325Z,155
2017-04-28T06:54:40.581Z,150
2017-04-28T06:55:50.838Z,165
2017-04-28T06:57:01.093Z,170
2017-04-28T06:58:11.354Z,175
2017-04-28T06:59:21.628Z,180
2017-04-28T07:00:31.583Z,180
2017-04-28T07:01:41.838Z,180
2017-04-28T07:02:52.109Z,190
2017-04-28T07:04:02.362Z,195
2017-04-28T07:05:11.988Z,195
2017-04-28T07:06:21.941Z,195
2017-04-28T07:07:31.892Z,195
2017-04-28T07:08:42.169Z,185
2017-04-28T07:09:52.420Z,190
2017-04-28T07:11:02.678Z,195
2017-04-28T07:12:12.627Z,190
2017-04-28T07:13:22.888Z,205
2017-04-28T07:14:33.153Z,230
2017-04-28T07:15:43.412Z,250
2017-04-28T07:16:53.675Z,260
2017-04-28T07:18:03.967Z,255
2017-04-28T07:19:14.230Z,255
2017-04-28T07:20:24.495Z,260
2017-04-28T07:21:34.446Z,265
2017-04-28T07:22:44.712Z,290
2017-04-28T07:23:54.974Z,285
2017-04-28T07:25:05.226Z,280
2017-04-28T07:26:14.855Z,295
2017-04-28T07:27:25.111Z,290
2017-04-28T07:28:35.052Z,290
2017-04-28T07:29:45.309Z,290
2017-04-28T07:30:55.564Z,280
2017-04-28T07:32:05.831Z,285
2017-04-28T07:33:16.123Z,270
2017-04-28T07:34:26.103Z,230
2017-04-28T07:35:36.061Z,210
2017-04-28T07:36:46.321Z,195
2017-04-28T07:37:56.576Z,180
2017-04-28T07:39:06.828Z,180
2017-04-28T07:40:17.089Z,185
2017-04-28T07:41:27.385Z,190
2017-04-28T07:42:37.641Z,200
2017-04-28T07:43:47.588Z,210
2017-04-28T07:44:57.844Z,210
2017-04-28T07:46:07.802Z,210
2017-04-28T07:47:18.058Z,225
2017-04-28T07:48:28.001Z,245
2017-04-28T07:49:38.259Z,255
2017-04-28T07:50:48.519Z,275
2017-04-28T07:51:58.777Z,285
2017-04-28T07:53:09.038Z,270
2017-04-28T07:54:19.291Z,285
2017-04-28T07:55:29.555Z,295
2017-04-28T07:56:39.497Z,325
2017-04-28T07:57:49.751Z,325
2017-04-28T07:59:00.021Z,305
2017-04-28T08:00:09.659Z,320
2017-04-28T08:01:19.940Z,340
2017-04-28T08:02:30.198Z,320
2017-04-28T08:03:40.152Z,285
2017-04-28T08:04:50.423Z,280
2017-04-28T08:06:00.686Z,300
2017-04-28T08:07:10.942Z,315
2017-04-28T08:08:21.199Z,335
2017-04-28T08:09:31.458Z,335
2017-04-28T08:10:41.724Z,295
2017-04-28T08:11:51.985Z,270
2017-04-28T08:13:02.248Z,290
2017-04-28T08:14:12.514Z,295
2017-04-28T08:15:22.462Z,250
2017-04-28T08:16:32.720Z,235
2017-04-28T08:17:42.661Z,235
2017-04-28T08:18:52.921Z,225
2017-04-28T08:20:03.176Z,225
2017-04-28T08:21:13.437Z,225
2017-04-28T08:22:23.691Z,225
2017-04-28T08:23:33.645Z,225
2017-04-28T08:24:43.910Z,220
2017-04-28T08:25:54.169Z,210
2017-04-28T08:27:04.429Z,240
2017-04-28T08:28:14.369Z,230
2017-04-28T08:29:24.659Z,245
2017-04-28T08:30:34.912Z,225
2017-04-28T08:31:44.856Z,205
2017-04-28T08:32:55.115Z,205
2017-04-28T08:34:05.372Z,195
2017-04-28T08:35:15.315Z,175
2017-04-28T08:36:25.576Z,185
2017-04-28T08:37:35.830Z,175
2017-04-28T08:38:46.085Z,170
2017-04-28T08:39:56.034Z,170
2017-04-28T08:41:06.296Z,170
2017-04-28T08:42:16.561Z,170
2017-04-28T08:43:26.505Z,150
2017-04-28T08:44:36.764Z,145
2017-04-28T08:45:47.033Z,140
2017-04-28T08:46:57.293Z,135
2017-04-28T08:48:07.545Z,135
2017-04-28T08:49:17.495Z,130
2017-04-28T08:50:27.756Z,140
2017-04-28T08:51:37.701Z,145
2017-04-28T08:52:47.960Z,150
2017-04-28T08:53:58.218Z,160
2017-04-28T08:55:08.479Z,175
2017-04-28T08:56:18.421Z,180
2017-04-28T08:57:28.679Z,180
2017-04-28T08:58:38.946Z,175
2017-04-28T08:59:49.208Z,185
2017-04-28T09:00:59.466Z,185
2017-04-28T09:02:09.405Z,180
2017-04-28T09:03:19.665Z,190
2017-04-28T09:04:29.926Z,195
2017-04-28T09:05:40.186Z,200
2017-04-28T09:06:50.445Z,215
2017-04-28T09:08:00.748Z,220
2017-04-28T09:09:11.010Z,225
2017-04-28T09:10:21.269Z,230
2017-04-28T09:11:31.532Z,235
2017-04-28T09:12:41.792Z,235
2017-04-28T09:13:52.042Z,235
2017-04-28T09:15:02.297Z,230
2017-04-28T09:16:11.924Z,235
2017-04-28T09:17:21.563Z,235
2017-04-28T09:18:31.825Z,240
2017-04-28T09:19:42.382Z,255
2017-04-28T09:20:52.646Z,275
2017-04-28T09:22:02.913Z,305
2017-04-28T09:23:12.865Z,325
2017-04-28T09:24:22.805Z,325
2017-04-28T09:25:33.069Z,315
2017-04-28T09:26:43.325Z,300
2017-04-28T09:27:53.593Z,280
2017-04-28T09:29:03.851Z,270
2017-04-28T09:30:14.117Z,275
2017-04-28T09:31:24.374Z,310
2017-04-28T09:32:34.319Z,370
2017-04-28T09:33:44.579Z,390
2017-04-28T09:34:54.836Z,425
2017-04-28T09:36:05.099Z,415
2017-04-28T09:37:15.357Z,410
2017-04-28T09:38:25.617Z,410
2017-04-28T09:39:35.880Z,460
2017-04-28T09:40:45.828Z,485
2017-04-28T09:41:56.085Z,495
2017-04-28T09:43:06.339Z,515
2017-04-28T09:44:16.289Z,495
2017-04-28T09:45:26.544Z,505
2017-04-28T09:46:36.806Z,555
2017-04-28T09:47:47.067Z,520
2017-04-28T09:48:57.045Z,495
2017-04-28T09:50:07.315Z,460
2017-04-28T09:51:17.573Z,490
2017-04-28T09:52:27.521Z,545
2017-04-28T09:53:37.531Z,465
2017-04-28T09:54:47.832Z,450
2017-04-28T09:55:58.095Z,425
2017-04-28T09:57:08.360Z,480
2017-04-28T09:58:18.633Z,505
2017-04-28T09:59:28.890Z,515
2017-04-28T10:00:39.201Z,455
2017-04-28T10:01:49.461Z,445
2017-04-28T10:02:59.724Z,365
2017-04-28T10:04:09.672Z,350
2017-04-28T10:05:19.969Z,360
2017-04-28T10:06:30.237Z,370
2017-04-28T10:07:40.507Z,335
2017-04-28T10:08:50.494Z,325
2017-04-28T10:10:00.759Z,335
2017-04-28T10:11:11.020Z,375
2017-04-28T10:12:20.333Z,370
2017-04-28T10:13:30.284Z,360
2017-04-28T10:14:40.572Z,345
2017-04-28T10:15:50.827Z,345
2017-04-28T10:17:01.086Z,340
2017-04-28T10:18:11.077Z,370
2017-04-28T10:19:21.035Z,375
2017-04-28T10:20:31.295Z,355
2017-04-28T10:21:41.551Z,375
2017-04-28T10:22:51.806Z,385
2017-04-28T10:24:02.062Z,365
2017-04-28T10:25:12.335Z,350
2017-04-28T10:26:22.596Z,370
2017-04-28T10:27:32.853Z,370
2017-04-28T10:28:43.113Z,365
2017-04-28T10:29:53.373Z,375
2017-04-28T10:31:03.648Z,395
2017-04-28T10:32:13.910Z,420
2017-04-28T10:33:24.169Z,435
2017-04-28T10:34:34.120Z,450
2017-04-28T10:35:44.065Z,460
2017-04-28T10:36:54.006Z,455
2017-04-28T10:38:04.267Z,450
2017-04-28T10:39:13.902Z,440
2017-04-28T10:40:24.159Z,520
2017-04-28T10:41:34.419Z,535
2017-04-28T10:42:44.367Z,490
2017-04-28T10:43:54.622Z,455
2017-04-28T10:45:04.881Z,495
2017-04-28T10:46:14.835Z,520
2017-04-28T10:47:25.092Z,550
2017-04-28T10:48:35.354Z,545
2017-04-28T10:49:45.624Z,545
2017-04-28T10:50:55.884Z,490
2017-04-28T10:52:05.833Z,445
2017-04-28T10:53:16.093Z,480
2017-04-28T10:54:26.344Z,465
2017-04-28T10:55:36.603Z,365
2017-04-28T10:56:46.865Z,375
2017-04-28T10:57:56.814Z,385
2017-04-28T10:59:06.753Z,355
2017-04-28T11:00:17.020Z,360
2017-04-28T11:01:27.277Z,365
2017-04-28T11:02:36.911Z,350
2017-04-28T11:03:47.190Z,355
2017-04-28T11:04:57.447Z,385
2017-04-28T11:06:07.395Z,385
2017-04-28T11:07:17.347Z,350
2017-04-28T11:08:27.614Z,350
2017-04-28T11:09:37.875Z,370
2017-04-28T11:10:47.504Z,360
2017-04-28T11:11:57.766Z,335
2017-04-28T11:13:08.033Z,320
2017-04-28T11:14:17.667Z,345
2017-04-28T11:15:27.623Z,325
2017-04-28T11:16:37.890Z,320
2017-04-28T11:17:48.159Z,340
2017-04-28T11:18:58.107Z,335
2017-04-28T11:20:07.736Z,315
2017-04-28T11:21:17.691Z,300
2017-04-28T11:22:27.635Z,295
2017-04-28T11:23:37.589Z,295
2017-04-28T11:24:47.537Z,285
2017-04-28T11:25:57.800Z,305
2017-04-28T11:27:07.120Z,335
2017-04-28T11:28:17.384Z,370
2017-04-28T11:29:27.645Z,375
2017-04-28T11:30:37.597Z,375
2017-04-28T11:31:47.540Z,440
2017-04-28T11:32:57.802Z,540
2017-04-28T11:34:08.066Z,465
2017-04-28T11:35:18.322Z,420
2017-04-28T11:36:28.267Z,365
2017-04-28T11:37:38.526Z,355
2017-04-28T11:38:48.793Z,390
2017-04-28T11:39:59.053Z,415
2017-04-28T11:41:09.312Z,390
2017-04-28T11:42:19.607Z,380
2017-04-28T11:43:29.881Z,355
2017-04-28T11:44:40.139Z,340
2017-04-28T11:45:50.405Z,335
2017-04-28T11:47:00.664Z,330
2017-04-28T11:48:10.617Z,350
2017-04-28T11:49:20.878Z,325
2017-04-28T11:50:31.132Z,330
2017-04-28T11:51:41.391Z,335
2017-04-28T11:52:51.342Z,345
2017-04-28T11:54:01.607Z,360
2017-04-28T11:55:11.865Z,345
2017-04-28T11:56:22.164Z,315
2017-04-28T11:57:32.424Z,290
2017-04-28T11:58:42.721Z,285
2017-04-28T11:59:52.976Z,265
2017-04-28T12:01:03.244Z,250
2017-04-28T12:02:13.513Z,245
2017-04-28T12:03:23.466Z,245
2017-04-28T12:04:33.423Z,245
2017-04-28T12:05:43.718Z,240
2017-04-28T12:06:53.665Z,235
2017-04-28T12:08:03.296Z,235
2017-04-28T12:09:13.248Z,230
2017-04-28T12:10:23.195Z,235
2017-04-28T12:11:33.136Z,220
2017-04-28T12:12:43.402Z,220
2017-04-28T12:13:53.352Z,215
2017-04-28T12:15:03.615Z,220
2017-04-28T12:16:13.595Z,220
2017-04-28T12:17:23.857Z,230
2017-04-28T12:18:34.115Z,235
2017-04-28T12:19:44.379Z,235
2017-04-28T12:20:54.330Z,250
2017-04-28T12:22:03.965Z,265
2017-04-28T12:23:14.226Z,270
2017-04-28T12:24:24.492Z,255
2017-04-28T12:25:34.437Z,245
2017-04-28T12:26:44.703Z,235
2017-04-28T12:27:54.668Z,235
2017-04-28T12:29:04.924Z,240
2017-04-28T12:30:14.878Z,250
2017-04-28T12:31:25.139Z,270
2017-04-28T12:32:35.403Z,285
2017-04-28T12:33:45.657Z,295
2017-04-28T12:34:55.616Z,295
2017-04-28T12:36:05.882Z,310
2017-04-28T12:37:15.828Z,335
2017-04-28T12:38:26.087Z,340
2017-04-28T12:39:36.343Z,330
2017-04-28T12:40:46.290Z,330
2017-04-28T12:41:56.236Z,320
2017-04-28T12:43:06.189Z,295
2017-04-28T12:44:16.448Z,270
2017-04-28T12:45:26.707Z,270
2017-04-28T12:46:36.969Z,290
2017-04-28T12:47:47.228Z,315
2017-04-28T12:48:57.177Z,340
2017-04-28T12:50:07.119Z,345
2017-04-28T12:51:16.752Z,315
2017-04-28T12:52:27.015Z,285
2017-04-28T12:53:37.275Z,270
2017-04-28T12:54:47.541Z,240
2017-04-28T12:55:57.490Z,225
2017-04-28T12:57:07.446Z,220
2017-04-28T12:58:17.402Z,240
2017-04-28T12:59:27.683Z,235
2017-04-28T13:00:37.951Z,235
2017-04-28T13:01:48.210Z,235
2017-04-28T13:02:58.469Z,230
2017-04-28T13:04:08.416Z,230
2017-04-28T13:05:18.680Z,245
2017-04-28T13:06:28.939Z,270
2017-04-28T13:07:38.937Z,285
2017-04-28T13:08:49.191Z,295
2017-04-28T13:09:59.140Z,300
2017-04-28T13:11:09.398Z,290
2017-04-28T13:12:19.343Z,275
2017-04-28T13:13:29.602Z,265
2017-04-28T13:14:39.550Z,265
2017-04-28T13:15:49.835Z,265
2017-04-28T13:16:59.158Z,275
2017-04-28T13:18:09.112Z,305
2017-04-28T13:19:19.384Z,320
2017-04-28T13:20:29.328Z,300
2017-04-28T13:21:39.606Z,295
2017-04-28T13:22:49.876Z,305
2017-04-28T13:23:59.818Z,315
2017-04-28T13:25:09.768Z,310
2017-04-28T13:26:19.710Z,300
2017-04-28T13:27:29.973Z,310
2017-04-28T13:28:40.269Z,325
2017-04-28T13:29:50.530Z,335
2017-04-28T13:31:00.793Z,345
2017-04-28T13:32:10.749Z,340
2017-04-28T13:33:21.011Z,315
2017-04-28T13:34:31.275Z,310
2017-04-28T13:35:41.533Z,320
2017-04-28T13:36:51.794Z,385
2017-04-28T13:38:01.779Z,445
2017-04-28T13:39:11.733Z,425
2017-04-28T13:40:21.996Z,430
2017-04-28T13:41:32.253Z,445
2017-04-28T13:42:42.515Z,445
2017-04-28T13:43:52.775Z,410
2017-04-28T13:45:03.085Z,395
2017-04-28T13:46:13.033Z,430
2017-04-28T13:47:23.299Z,395
2017-04-28T13:48:33.562Z,375
2017-04-28T13:49:43.830Z,350
2017-04-28T13:50:53.801Z,345
2017-04-28T13:52:04.068Z,310
2017-04-28T13:53:14.327Z,260
2017-04-28T13:54:24.590Z,240
2017-04-28T13:55:34.547Z,250
2017-04-28T13:56:44.809Z,240
2017-04-28T13:57:55.074Z,250
2017-04-28T13:59:05.333Z,280
2017-04-28T14:00:15.597Z,290
2017-04-28T14:01:25.865Z,265
2017-04-28T14:02:36.136Z,255
2017-04-28T14:03:46.087Z,265
2017-04-28T14:04:55.408Z,270
2017-04-28T14:06:05.358Z,270
2017-04-28T14:07:14.991Z,270
2017-04-28T14:08:25.254Z,265
2017-04-28T14:09:35.555Z,240
2017-04-28T14:10:45.818Z,225
2017-04-28T14:11:56.083Z,220
2017-04-28T14:13:06.041Z,220
2017-04-28T14:14:16.307Z,225
2017-04-28T14:15:26.260Z,225
2017-04-28T14:16:36.527Z,230
2017-04-28T14:17:46.790Z,245
2017-04-28T14:18:57.046Z,260
2017-04-28T14:20:07.339Z,285
2017-04-28T14:21:16.658Z,320
2017-04-28T14:22:26.928Z,335
2017-04-28T14:23:37.191Z,330
2017-04-28T14:24:47.459Z,265
2017-04-28T14:25:57.722Z,220
2017-04-28T14:27:07.678Z,200
2017-04-28T14:28:17.944Z,180
2017-04-28T14:29:28.244Z,170
2017-04-28T14:30:38.504Z,165
2017-04-28T14:31:48.764Z,160
2017-04-28T14:32:59.024Z,155
2017-04-28T14:34:09.287Z,170
2017-04-28T14:35:19.244Z,200
2017-04-28T14:36:29.516Z,205
2017-04-28T14:37:39.778Z,205
2017-04-28T14:38:50.041Z,190
2017-04-28T14:40:00.314Z,175
2017-04-28T14:41:10.618Z,160
2017-04-28T14:42:20.872Z,155
2017-04-28T14:43:31.135Z,140
2017-04-28T14:44:41.085Z,135
2017-04-28T14:45:51.353Z,135
2017-04-28T14:47:01.614Z,120
2017-04-28T14:48:11.872Z,110
2017-04-28T14:49:22.163Z,105
2017-04-28T14:50:32.420Z,120
2017-04-28T14:51:42.685Z,140
2017-04-28T14:52:52.634Z,165
2017-04-28T14:54:02.584Z,170
2017-04-28T14:55:12.842Z,195
2017-04-28T14:56:22.786Z,210
2017-04-28T14:57:32.417Z,215
2017-04-28T14:58:42.674Z,210
2017-04-28T14:59:52.620Z,205
2017-04-28T15:01:02.881Z,200
2017-04-28T15:02:12.828Z,190
2017-04-28T15:03:23.093Z,190
2017-04-28T15:04:33.353Z,200
2017-04-28T15:05:43.608Z,220
2017-04-28T15:06:53.873Z,225
2017-04-28T15:08:04.149Z,210
2017-04-28T15:09:14.120Z,210
2017-04-28T15:10:24.388Z,205
2017-04-28T15:11:34.343Z,210
2017-04-28T15:12:44.603Z,210
2017-04-28T15:13:54.552Z,205
2017-04-28T15:15:04.819Z,200
2017-04-28T15:16:15.075Z,200
2017-04-28T15:17:25.330Z,205
2017-04-28T15:18:35.589Z,200
2017-04-28T15:19:45.537Z,230
2017-04-28T15:20:55.799Z,235
2017-04-28T15:22:06.072Z,230
2017-04-28T15:23:16.339Z,240
2017-04-28T15:24:26.606Z,195
2017-04-28T15:25:36.866Z,165
2017-04-28T15:26:46.815Z,160
2017-04-28T15:27:56.777Z,170
2017-04-28T15:29:07.043Z,165
2017-04-28T15:30:17.305Z,170
2017-04-28T15:31:27.597Z,175
2017-04-28T15:32:37.565Z,160
2017-04-28T15:33:47.825Z,170
2017-04-28T15:34:57.785Z,200
2017-04-28T15:36:08.047Z,205
2017-04-28T15:37:18.313Z,205
2017-04-28T15:38:28.573Z,195
2017-04-28T15:39:38.832Z,175
2017-04-28T15:40:49.089Z,165
2017-04-28T15:41:59.349Z,165
2017-04-28T15:43:09.614Z,165
2017-04-28T15:44:19.876Z,170
2017-04-28T15:45:29.828Z,190
2017-04-28T15:46:40.086Z,215
2017-04-28T15:47:50.351Z,220
2017-04-28T15:49:00.294Z,235
2017-04-28T15:50:10.236Z,250
2017-04-28T15:51:20.491Z,245
2017-04-28T15:52:30.747Z,230
2017-04-28T15:53:41.008Z,215
2017-04-28T15:54:50.648Z,210
2017-04-28T15:56:00.909Z,195
2017-04-28T15:57:11.167Z,185
2017-04-28T15:58:20.800Z,160
2017-04-28T15:59:31.067Z,155
2017-04-28T16:00:41.331Z,150
2017-04-28T16:01:51.593Z,150
2017-04-28T16:03:01.861Z,150
2017-04-28T16:04:12.128Z,150
2017-04-28T16:05:22.075Z,140
2017-04-28T16:06:32.028Z,135
2017-04-28T16:07:42.294Z,140
2017-04-28T16:08:52.248Z,140
2017-04-28T16:10:02.515Z,140
2017-04-28T16:11:12.462Z,150
2017-04-28T16:12:22.733Z,160
2017-04-28T16:13:32.996Z,160
2017-04-28T16:14:42.941Z,160
2017-04-28T16:15:53.210Z,160
2017-04-28T16:17:03.157Z,165
2017-04-28T16:18:13.418Z,160
2017-04-28T16:19:23.680Z,165
2017-04-28T16:20:37.543Z,170
2017-04-28T16:21:47.814Z,170
2017-04-28T16:22:58.076Z,170
2017-04-28T16:24:07.710Z,165